sensor_id;sensor_type;location;lat;lon;timestamp;P1;P2;P0
47982;PMS5003;33751;50.816;-1.214;2023-11-19T00:00:01;8;5;
47982;PMS5003;33751;50.816;-1.214;2023-11-19T00:02:28;3;3;
47982;PMS5003;33751;50.816;-1.214;2023-11-19T00:04:55;6;4;
47982;PMS5003;33751;50.816;-1.214;2023-11-19T00:07:22;3;3;
47982;PMS5003;33751;50.816;-1.214;2023-11-19T00:09:49;7;4;
47982;PMS5003;33751;50.816;-1.214;2023-11-19T00:12:15;2;1;
47982;PMS5003;33751;50.816;-1.214;2023-11-19T00:14:42;4;4;
47982;PMS5003;33751;50.816;-1.214;2023-11-19T00:17:08;5;3;
47982;PMS5003;33751;50.816;-1.214;2023-11-19T00:19:35;6;3;
47982;PMS5003;33751;50.816;-1.214;2023-11-19T00:22:02;6;3;
47982;PMS5003;33751;50.816;-1.214;2023-11-19T00:24:30;6;4;
47982;PMS5003;33751;50.816;-1.214;2023-11-19T00:26:57;3;3;
47982;PMS5003;33751;50.816;-1.214;2023-11-19T00:29:24;6;3;
47982;PMS5003;33751;50.816;-1.214;2023-11-19T00:31:51;3;3;
47982;PMS5003;33751;50.816;-1.214;2023-11-19T00:34:17;5;5;
47982;PMS5003;33751;50.816;-1.214;2023-11-19T00:36:44;7;6;
47982;PMS5003;33751;50.816;-1.214;2023-11-19T00:39:11;3;2;
47982;PMS5003;33751;50.816;-1.214;2023-11-19T00:41:38;4;4;
47982;PMS5003;33751;50.816;-1.214;2023-11-19T00:44:04;7;7;
47982;PMS5003;33751;50.816;-1.214;2023-11-19T00:46:31;6;4;
47982;PMS5003;33751;50.816;-1.214;2023-11-19T00:48:58;9;6;
47982;PMS5003;33751;50.816;-1.214;2023-11-19T00:51:24;6;4;
47982;PMS5003;33751;50.816;-1.214;2023-11-19T00:53:51;5;4;
47982;PMS5003;33751;50.816;-1.214;2023-11-19T00:56:17;4;4;
47982;PMS5003;33751;50.816;-1.214;2023-11-19T00:58:44;6;3;
47982;PMS5003;33751;50.816;-1.214;2023-11-19T01:01:11;2;2;
47982;PMS5003;33751;50.816;-1.214;2023-11-19T01:03:38;5;2;
47982;PMS5003;33751;50.816;-1.214;2023-11-19T01:06:05;10;3;
47982;PMS5003;33751;50.816;-1.214;2023-11-19T01:08:32;5;4;
47982;PMS5003;33751;50.816;-1.214;2023-11-19T01:10:59;3;3;
47982;PMS5003;33751;50.816;-1.214;2023-11-19T01:13:25;5;4;
47982;PMS5003;33751;50.816;-1.214;2023-11-19T01:15:52;4;4;
47982;PMS5003;33751;50.816;-1.214;2023-11-19T01:18:19;3;3;
47982;PMS5003;33751;50.816;-1.214;2023-11-19T01:20:45;4;4;
47982;PMS5003;33751;50.816;-1.214;2023-11-19T01:23:12;3;1;
47982;PMS5003;33751;50.816;-1.214;2023-11-19T01:25:38;5;4;
47982;PMS5003;33751;50.816;-1.214;2023-11-19T01:28:05;2;2;
47982;PMS5003;33751;50.816;-1.214;2023-11-19T01:30:31;3;3;
47982;PMS5003;33751;50.816;-1.214;2023-11-19T01:32:58;7;4;
47982;PMS5003;33751;50.816;-1.214;2023-11-19T01:35:25;5;4;
47982;PMS5003;33751;50.816;-1.214;2023-11-19T01:37:51;4;4;
47982;PMS5003;33751;50.816;-1.214;2023-11-19T01:40:20;6;6;
47982;PMS5003;33751;50.816;-1.214;2023-11-19T01:42:47;8;4;
47982;PMS5003;33751;50.816;-1.214;2023-11-19T01:45:17;4;4;
47982;PMS5003;33751;50.816;-1.214;2023-11-19T01:47:53;3;2;
47982;PMS5003;33751;50.816;-1.214;2023-11-19T01:50:21;1;1;
47982;PMS5003;33751;50.816;-1.214;2023-11-19T01:52:48;2;2;
47982;PMS5003;33751;50.816;-1.214;2023-11-19T01:55:14;4;4;
47982;PMS5003;33751;50.816;-1.214;2023-11-19T01:57:42;4;3;
47982;PMS5003;33751;50.816;-1.214;2023-11-19T02:00:09;2;2;
47982;PMS5003;33751;50.816;-1.214;2023-11-19T02:02:37;3;3;
47982;PMS5003;33751;50.816;-1.214;2023-11-19T02:05:04;5;3;
47982;PMS5003;33751;50.816;-1.214;2023-11-19T02:07:30;10;5;
47982;PMS5003;33751;50.816;-1.214;2023-11-19T02:09:58;1;1;
47982;PMS5003;33751;50.816;-1.214;2023-11-19T02:12:25;5;4;
47982;PMS5003;33751;50.816;-1.214;2023-11-19T02:14:51;2;2;
47982;PMS5003;33751;50.816;-1.214;2023-11-19T02:17:25;2;2;
47982;PMS5003;33751;50.816;-1.214;2023-11-19T02:19:52;3;3;
47982;PMS5003;33751;50.816;-1.214;2023-11-19T02:22:19;3;3;
47982;PMS5003;33751;50.816;-1.214;2023-11-19T02:24:47;3;3;
47982;PMS5003;33751;50.816;-1.214;2023-11-19T02:27:19;3;3;
47982;PMS5003;33751;50.816;-1.214;2023-11-19T02:29:55;3;3;
47982;PMS5003;33751;50.816;-1.214;2023-11-19T02:32:22;2;2;
47982;PMS5003;33751;50.816;-1.214;2023-11-19T02:34:48;2;2;
47982;PMS5003;33751;50.816;-1.214;2023-11-19T02:37:15;2;2;
47982;PMS5003;33751;50.816;-1.214;2023-11-19T02:39:41;3;3;
47982;PMS5003;33751;50.816;-1.214;2023-11-19T02:42:08;3;3;
47982;PMS5003;33751;50.816;-1.214;2023-11-19T02:44:34;3;1;
47982;PMS5003;33751;50.816;-1.214;2023-11-19T02:47:01;3;3;
47982;PMS5003;33751;50.816;-1.214;2023-11-19T02:49:27;2;1;
47982;PMS5003;33751;50.816;-1.214;2023-11-19T02:51:55;4;2;
47982;PMS5003;33751;50.816;-1.214;2023-11-19T02:54:22;3;3;
47982;PMS5003;33751;50.816;-1.214;2023-11-19T02:56:48;1;1;
47982;PMS5003;33751;50.816;-1.214;2023-11-19T02:59:14;4;4;
47982;PMS5003;33751;50.816;-1.214;2023-11-19T03:01:41;2;2;
47982;PMS5003;33751;50.816;-1.214;2023-11-19T03:04:08;7;3;
47982;PMS5003;33751;50.816;-1.214;2023-11-19T03:06:34;2;2;
47982;PMS5003;33751;50.816;-1.214;2023-11-19T03:09:01;2;2;
47982;PMS5003;33751;50.816;-1.214;2023-11-19T03:11:27;2;2;
47982;PMS5003;33751;50.816;-1.214;2023-11-19T03:13:54;8;3;
47982;PMS5003;33751;50.816;-1.214;2023-11-19T03:16:22;2;2;
47982;PMS5003;33751;50.816;-1.214;2023-11-19T03:18:48;6;5;
47982;PMS5003;33751;50.816;-1.214;2023-11-19T03:21:16;5;5;
47982;PMS5003;33751;50.816;-1.214;2023-11-19T03:23:43;2;2;
47982;PMS5003;33751;50.816;-1.214;2023-11-19T03:26:10;3;2;
47982;PMS5003;33751;50.816;-1.214;2023-11-19T03:28:36;5;4;
47982;PMS5003;33751;50.816;-1.214;2023-11-19T03:31:04;4;4;
47982;PMS5003;33751;50.816;-1.214;2023-11-19T03:33:31;5;3;
47982;PMS5003;33751;50.816;-1.214;2023-11-19T03:35:58;3;3;
47982;PMS5003;33751;50.816;-1.214;2023-11-19T03:38:25;4;4;
47982;PMS5003;33751;50.816;-1.214;2023-11-19T03:40:51;4;4;
47982;PMS5003;33751;50.816;-1.214;2023-11-19T03:43:18;2;2;
47982;PMS5003;33751;50.816;-1.214;2023-11-19T03:45:45;6;6;
47982;PMS5003;33751;50.816;-1.214;2023-11-19T03:48:11;3;3;
47982;PMS5003;33751;50.816;-1.214;2023-11-19T03:50:38;3;3;
47982;PMS5003;33751;50.816;-1.214;2023-11-19T03:53:04;5;2;
47982;PMS5003;33751;50.816;-1.214;2023-11-19T03:55:32;4;2;
47982;PMS5003;33751;50.816;-1.214;2023-11-19T03:57:58;7;5;
47982;PMS5003;33751;50.816;-1.214;2023-11-19T04:00:25;2;2;
47982;PMS5003;33751;50.816;-1.214;2023-11-19T04:02:52;6;3;
47982;PMS5003;33751;50.816;-1.214;2023-11-19T04:05:19;4;4;
47982;PMS5003;33751;50.816;-1.214;2023-11-19T04:07:46;5;4;
47982;PMS5003;33751;50.816;-1.214;2023-11-19T04:10:14;2;2;
47982;PMS5003;33751;50.816;-1.214;2023-11-19T04:12:41;6;3;
47982;PMS5003;33751;50.816;-1.214;2023-11-19T04:15:08;3;3;
47982;PMS5003;33751;50.816;-1.214;2023-11-19T04:17:35;5;4;
47982;PMS5003;33751;50.816;-1.214;2023-11-19T04:20:02;5;4;
47982;PMS5003;33751;50.816;-1.214;2023-11-19T04:22:29;4;4;
47982;PMS5003;33751;50.816;-1.214;2023-11-19T04:24:55;3;3;
47982;PMS5003;33751;50.816;-1.214;2023-11-19T04:27:22;3;2;
47982;PMS5003;33751;50.816;-1.214;2023-11-19T04:29:48;5;4;
47982;PMS5003;33751;50.816;-1.214;2023-11-19T04:32:15;3;3;
47982;PMS5003;33751;50.816;-1.214;2023-11-19T04:34:41;2;2;
47982;PMS5003;33751;50.816;-1.214;2023-11-19T04:37:08;4;3;
47982;PMS5003;33751;50.816;-1.214;2023-11-19T04:39:34;2;2;
47982;PMS5003;33751;50.816;-1.214;2023-11-19T04:42:01;0;0;
47982;PMS5003;33751;50.816;-1.214;2023-11-19T04:44:27;2;2;
47982;PMS5003;33751;50.816;-1.214;2023-11-19T04:46:54;5;2;
47982;PMS5003;33751;50.816;-1.214;2023-11-19T04:49:21;4;3;
47982;PMS5003;33751;50.816;-1.214;2023-11-19T04:51:47;6;3;
47982;PMS5003;33751;50.816;-1.214;2023-11-19T04:54:14;2;2;
47982;PMS5003;33751;50.816;-1.214;2023-11-19T04:56:40;2;1;
47982;PMS5003;33751;50.816;-1.214;2023-11-19T04:59:11;4;2;
47982;PMS5003;33751;50.816;-1.214;2023-11-19T05:01:38;1;1;
47982;PMS5003;33751;50.816;-1.214;2023-11-19T05:04:04;3;2;
47982;PMS5003;33751;50.816;-1.214;2023-11-19T05:06:31;4;4;
47982;PMS5003;33751;50.816;-1.214;2023-11-19T05:08:59;2;2;
47982;PMS5003;33751;50.816;-1.214;2023-11-19T05:11:26;5;4;
47982;PMS5003;33751;50.816;-1.214;2023-11-19T05:13:53;3;2;
47982;PMS5003;33751;50.816;-1.214;2023-11-19T05:16:20;4;3;
47982;PMS5003;33751;50.816;-1.214;2023-11-19T05:18:47;4;4;
47982;PMS5003;33751;50.816;-1.214;2023-11-19T05:21:15;3;3;
47982;PMS5003;33751;50.816;-1.214;2023-11-19T05:23:42;4;4;
47982;PMS5003;33751;50.816;-1.214;2023-11-19T05:26:08;5;4;
47982;PMS5003;33751;50.816;-1.214;2023-11-19T05:28:35;2;2;
47982;PMS5003;33751;50.816;-1.214;2023-11-19T05:31:02;6;6;
47982;PMS5003;33751;50.816;-1.214;2023-11-19T05:33:29;1;1;
47982;PMS5003;33751;50.816;-1.214;2023-11-19T05:35:55;2;2;
47982;PMS5003;33751;50.816;-1.214;2023-11-19T05:38:21;2;1;
47982;PMS5003;33751;50.816;-1.214;2023-11-19T05:40:48;2;2;
47982;PMS5003;33751;50.816;-1.214;2023-11-19T05:43:15;2;2;
47982;PMS5003;33751;50.816;-1.214;2023-11-19T05:45:42;4;4;
47982;PMS5003;33751;50.816;-1.214;2023-11-19T05:48:08;5;2;
47982;PMS5003;33751;50.816;-1.214;2023-11-19T05:50:34;3;2;
47982;PMS5003;33751;50.816;-1.214;2023-11-19T05:53:01;4;4;
47982;PMS5003;33751;50.816;-1.214;2023-11-19T05:55:28;3;2;
47982;PMS5003;33751;50.816;-1.214;2023-11-19T05:57:54;5;2;
47982;PMS5003;33751;50.816;-1.214;2023-11-19T06:00:21;1;1;
47982;PMS5003;33751;50.816;-1.214;2023-11-19T06:02:48;4;4;
47982;PMS5003;33751;50.816;-1.214;2023-11-19T06:05:14;4;3;
47982;PMS5003;33751;50.816;-1.214;2023-11-19T06:07:41;4;2;
47982;PMS5003;33751;50.816;-1.214;2023-11-19T06:10:09;5;5;
47982;PMS5003;33751;50.816;-1.214;2023-11-19T06:12:36;4;4;
47982;PMS5003;33751;50.816;-1.214;2023-11-19T06:15:03;3;2;
47982;PMS5003;33751;50.816;-1.214;2023-11-19T06:17:31;5;3;
47982;PMS5003;33751;50.816;-1.214;2023-11-19T06:19:58;3;3;
47982;PMS5003;33751;50.816;-1.214;2023-11-19T06:22:25;2;2;
47982;PMS5003;33751;50.816;-1.214;2023-11-19T06:24:51;3;3;
47982;PMS5003;33751;50.816;-1.214;2023-11-19T06:27:18;4;3;
47982;PMS5003;33751;50.816;-1.214;2023-11-19T06:29:45;2;2;
47982;PMS5003;33751;50.816;-1.214;2023-11-19T06:32:12;3;2;
47982;PMS5003;33751;50.816;-1.214;2023-11-19T06:34:38;2;2;
47982;PMS5003;33751;50.816;-1.214;2023-11-19T06:37:05;2;2;
47982;PMS5003;33751;50.816;-1.214;2023-11-19T06:39:32;4;4;
47982;PMS5003;33751;50.816;-1.214;2023-11-19T06:41:59;5;2;
47982;PMS5003;33751;50.816;-1.214;2023-11-19T06:44:26;2;2;
47982;PMS5003;33751;50.816;-1.214;2023-11-19T06:46:52;4;4;
47982;PMS5003;33751;50.816;-1.214;2023-11-19T06:49:19;5;4;
47982;PMS5003;33751;50.816;-1.214;2023-11-19T06:51:47;3;1;
47982;PMS5003;33751;50.816;-1.214;2023-11-19T06:54:14;7;4;
47982;PMS5003;33751;50.816;-1.214;2023-11-19T06:56:41;2;2;
47982;PMS5003;33751;50.816;-1.214;2023-11-19T06:59:08;4;3;
47982;PMS5003;33751;50.816;-1.214;2023-11-19T07:01:35;1;1;
47982;PMS5003;33751;50.816;-1.214;2023-11-19T07:04:03;4;4;
47982;PMS5003;33751;50.816;-1.214;2023-11-19T07:06:30;3;2;
47982;PMS5003;33751;50.816;-1.214;2023-11-19T07:08:56;3;3;
47982;PMS5003;33751;50.816;-1.214;2023-11-19T07:11:23;2;2;
47982;PMS5003;33751;50.816;-1.214;2023-11-19T07:13:49;3;3;
47982;PMS5003;33751;50.816;-1.214;2023-11-19T07:16:16;3;3;
47982;PMS5003;33751;50.816;-1.214;2023-11-19T07:18:43;2;2;
47982;PMS5003;33751;50.816;-1.214;2023-11-19T07:21:09;1;1;
47982;PMS5003;33751;50.816;-1.214;2023-11-19T07:23:36;3;2;
47982;PMS5003;33751;50.816;-1.214;2023-11-19T07:26:04;4;3;
47982;PMS5003;33751;50.816;-1.214;2023-11-19T07:28:32;6;4;
47982;PMS5003;33751;50.816;-1.214;2023-11-19T07:30:58;5;3;
47982;PMS5003;33751;50.816;-1.214;2023-11-19T07:33:25;1;1;
47982;PMS5003;33751;50.816;-1.214;2023-11-19T07:35:52;2;2;
47982;PMS5003;33751;50.816;-1.214;2023-11-19T07:38:18;2;2;
47982;PMS5003;33751;50.816;-1.214;2023-11-19T07:40:45;1;1;
47982;PMS5003;33751;50.816;-1.214;2023-11-19T07:43:12;7;4;
47982;PMS5003;33751;50.816;-1.214;2023-11-19T07:45:39;4;2;
47982;PMS5003;33751;50.816;-1.214;2023-11-19T07:48:07;3;3;
47982;PMS5003;33751;50.816;-1.214;2023-11-19T07:50:34;4;3;
47982;PMS5003;33751;50.816;-1.214;2023-11-19T07:53:00;3;3;
47982;PMS5003;33751;50.816;-1.214;2023-11-19T07:55:27;9;3;
47982;PMS5003;33751;50.816;-1.214;2023-11-19T07:57:53;6;3;
47982;PMS5003;33751;50.816;-1.214;2023-11-19T08:00:20;4;3;
47982;PMS5003;33751;50.816;-1.214;2023-11-19T08:02:47;10;2;
47982;PMS5003;33751;50.816;-1.214;2023-11-19T08:05:14;3;3;
47982;PMS5003;33751;50.816;-1.214;2023-11-19T08:07:41;4;4;
47982;PMS5003;33751;50.816;-1.214;2023-11-19T08:10:08;4;2;
47982;PMS5003;33751;50.816;-1.214;2023-11-19T08:12:35;2;2;
47982;PMS5003;33751;50.816;-1.214;2023-11-19T08:15:08;7;5;
47982;PMS5003;33751;50.816;-1.214;2023-11-19T08:17:36;4;3;
47982;PMS5003;33751;50.816;-1.214;2023-11-19T08:20:03;4;3;
47982;PMS5003;33751;50.816;-1.214;2023-11-19T08:22:31;3;3;
47982;PMS5003;33751;50.816;-1.214;2023-11-19T08:24:57;4;3;
47982;PMS5003;33751;50.816;-1.214;2023-11-19T08:27:24;6;3;
47982;PMS5003;33751;50.816;-1.214;2023-11-19T08:29:52;9;2;
47982;PMS5003;33751;50.816;-1.214;2023-11-19T08:32:20;4;2;
47982;PMS5003;33751;50.816;-1.214;2023-11-19T08:34:47;3;2;
47982;PMS5003;33751;50.816;-1.214;2023-11-19T08:37:14;1;1;
47982;PMS5003;33751;50.816;-1.214;2023-11-19T08:39:40;3;2;
47982;PMS5003;33751;50.816;-1.214;2023-11-19T08:42:07;3;3;
47982;PMS5003;33751;50.816;-1.214;2023-11-19T08:44:34;2;2;
47982;PMS5003;33751;50.816;-1.214;2023-11-19T08:47:01;4;2;
47982;PMS5003;33751;50.816;-1.214;2023-11-19T08:49:28;2;2;
47982;PMS5003;33751;50.816;-1.214;2023-11-19T08:51:54;5;4;
47982;PMS5003;33751;50.816;-1.214;2023-11-19T08:54:21;6;3;
47982;PMS5003;33751;50.816;-1.214;2023-11-19T08:56:48;5;4;
47982;PMS5003;33751;50.816;-1.214;2023-11-19T08:59:14;3;3;
47982;PMS5003;33751;50.816;-1.214;2023-11-19T09:01:41;4;4;
47982;PMS5003;33751;50.816;-1.214;2023-11-19T09:04:07;3;3;
47982;PMS5003;33751;50.816;-1.214;2023-11-19T09:06:35;10;4;
47982;PMS5003;33751;50.816;-1.214;2023-11-19T09:09:02;3;3;
47982;PMS5003;33751;50.816;-1.214;2023-11-19T09:11:29;4;4;
47982;PMS5003;33751;50.816;-1.214;2023-11-19T09:13:56;11;6;
47982;PMS5003;33751;50.816;-1.214;2023-11-19T09:16:22;8;8;
47982;PMS5003;33751;50.816;-1.214;2023-11-19T09:18:49;6;6;
47982;PMS5003;33751;50.816;-1.214;2023-11-19T09:21:16;10;9;
47982;PMS5003;33751;50.816;-1.214;2023-11-19T09:23:43;9;8;
47982;PMS5003;33751;50.816;-1.214;2023-11-19T09:26:10;7;7;
47982;PMS5003;33751;50.816;-1.214;2023-11-19T09:28:36;10;10;
47982;PMS5003;33751;50.816;-1.214;2023-11-19T09:31:12;14;8;
47982;PMS5003;33751;50.816;-1.214;2023-11-19T09:33:39;10;9;
47982;PMS5003;33751;50.816;-1.214;2023-11-19T09:36:06;12;9;
47982;PMS5003;33751;50.816;-1.214;2023-11-19T09:38:33;15;10;
47982;PMS5003;33751;50.816;-1.214;2023-11-19T09:41:00;13;10;
47982;PMS5003;33751;50.816;-1.214;2023-11-19T09:43:27;14;8;
47982;PMS5003;33751;50.816;-1.214;2023-11-19T09:45:55;20;13;
47982;PMS5003;33751;50.816;-1.214;2023-11-19T09:48:24;13;9;
47982;PMS5003;33751;50.816;-1.214;2023-11-19T09:50:51;23;13;
47982;PMS5003;33751;50.816;-1.214;2023-11-19T09:53:19;18;10;
47982;PMS5003;33751;50.816;-1.214;2023-11-19T09:55:46;9;9;
47982;PMS5003;33751;50.816;-1.214;2023-11-19T09:58:14;11;9;
47982;PMS5003;33751;50.816;-1.214;2023-11-19T10:00:41;12;9;
47982;PMS5003;33751;50.816;-1.214;2023-11-19T10:03:08;16;9;
47982;PMS5003;33751;50.816;-1.214;2023-11-19T10:05:37;12;10;
47982;PMS5003;33751;50.816;-1.214;2023-11-19T10:08:04;9;8;
47982;PMS5003;33751;50.816;-1.214;2023-11-19T10:10:31;14;8;
47982;PMS5003;33751;50.816;-1.214;2023-11-19T10:12:58;10;7;
47982;PMS5003;33751;50.816;-1.214;2023-11-19T10:15:25;10;7;
47982;PMS5003;33751;50.816;-1.214;2023-11-19T10:17:52;8;5;
47982;PMS5003;33751;50.816;-1.214;2023-11-19T10:20:18;13;8;
47982;PMS5003;33751;50.816;-1.214;2023-11-19T10:22:46;8;5;
47982;PMS5003;33751;50.816;-1.214;2023-11-19T10:25:21;19;9;
47982;PMS5003;33751;50.816;-1.214;2023-11-19T10:27:49;11;9;
47982;PMS5003;33751;50.816;-1.214;2023-11-19T10:30:17;5;5;
47982;PMS5003;33751;50.816;-1.214;2023-11-19T10:32:44;8;6;
47982;PMS5003;33751;50.816;-1.214;2023-11-19T10:35:11;5;4;
47982;PMS5003;33751;50.816;-1.214;2023-11-19T10:37:38;9;4;
47982;PMS5003;33751;50.816;-1.214;2023-11-19T10:40:05;7;6;
47982;PMS5003;33751;50.816;-1.214;2023-11-19T10:42:32;7;5;
47982;PMS5003;33751;50.816;-1.214;2023-11-19T10:44:59;6;6;
47982;PMS5003;33751;50.816;-1.214;2023-11-19T10:47:26;5;4;
47982;PMS5003;33751;50.816;-1.214;2023-11-19T10:49:52;5;3;
47982;PMS5003;33751;50.816;-1.214;2023-11-19T10:52:19;6;4;
47982;PMS5003;33751;50.816;-1.214;2023-11-19T10:54:48;6;5;
47982;PMS5003;33751;50.816;-1.214;2023-11-19T10:57:19;7;7;
47982;PMS5003;33751;50.816;-1.214;2023-11-19T10:59:52;4;3;
47982;PMS5003;33751;50.816;-1.214;2023-11-19T11:02:27;9;6;
47982;PMS5003;33751;50.816;-1.214;2023-11-19T11:04:55;5;3;
47982;PMS5003;33751;50.816;-1.214;2023-11-19T11:07:23;6;5;
47982;PMS5003;33751;50.816;-1.214;2023-11-19T11:09:51;11;8;
47982;PMS5003;33751;50.816;-1.214;2023-11-19T11:12:18;10;4;
47982;PMS5003;33751;50.816;-1.214;2023-11-19T11:14:50;4;4;
47982;PMS5003;33751;50.816;-1.214;2023-11-19T11:17:19;4;3;
47982;PMS5003;33751;50.816;-1.214;2023-11-19T11:19:50;8;5;
47982;PMS5003;33751;50.816;-1.214;2023-11-19T11:22:16;6;5;
47982;PMS5003;33751;50.816;-1.214;2023-11-19T11:24:50;5;5;
47982;PMS5003;33751;50.816;-1.214;2023-11-19T11:27:35;6;3;
47982;PMS5003;33751;50.816;-1.214;2023-11-19T11:30:18;4;4;
47982;PMS5003;33751;50.816;-1.214;2023-11-19T11:32:58;10;8;
47982;PMS5003;33751;50.816;-1.214;2023-11-19T11:35:35;7;7;
47982;PMS5003;33751;50.816;-1.214;2023-11-19T11:38:14;7;5;
47982;PMS5003;33751;50.816;-1.214;2023-11-19T11:40:55;2;2;
47982;PMS5003;33751;50.816;-1.214;2023-11-19T11:43:45;7;5;
47982;PMS5003;33751;50.816;-1.214;2023-11-19T11:47:01;4;4;
47982;PMS5003;33751;50.816;-1.214;2023-11-19T11:49:28;5;5;
47982;PMS5003;33751;50.816;-1.214;2023-11-19T11:51:57;5;5;
47982;PMS5003;33751;50.816;-1.214;2023-11-19T11:54:25;5;3;
47982;PMS5003;33751;50.816;-1.214;2023-11-19T11:57:00;8;4;
47982;PMS5003;33751;50.816;-1.214;2023-11-19T11:59:31;6;4;
47982;PMS5003;33751;50.816;-1.214;2023-11-19T12:02:03;5;4;
47982;PMS5003;33751;50.816;-1.214;2023-11-19T12:04:30;5;3;
47982;PMS5003;33751;50.816;-1.214;2023-11-19T12:07:04;8;6;
47982;PMS5003;33751;50.816;-1.214;2023-11-19T12:09:32;5;5;
47982;PMS5003;33751;50.816;-1.214;2023-11-19T12:12:07;2;2;
47982;PMS5003;33751;50.816;-1.214;2023-11-19T12:15:12;7;5;
47982;PMS5003;33751;50.816;-1.214;2023-11-19T12:17:41;6;6;
47982;PMS5003;33751;50.816;-1.214;2023-11-19T12:20:10;6;5;
47982;PMS5003;33751;50.816;-1.214;2023-11-19T12:22:37;7;4;
47982;PMS5003;33751;50.816;-1.214;2023-11-19T12:25:05;8;3;
47982;PMS5003;33751;50.816;-1.214;2023-11-19T12:27:33;4;2;
47982;PMS5003;33751;50.816;-1.214;2023-11-19T12:30:00;4;4;
47982;PMS5003;33751;50.816;-1.214;2023-11-19T12:32:27;5;5;
47982;PMS5003;33751;50.816;-1.214;2023-11-19T12:35:04;3;3;
47982;PMS5003;33751;50.816;-1.214;2023-11-19T12:37:31;2;2;
47982;PMS5003;33751;50.816;-1.214;2023-11-19T12:39:58;4;4;
47982;PMS5003;33751;50.816;-1.214;2023-11-19T12:42:34;2;2;
47982;PMS5003;33751;50.816;-1.214;2023-11-19T12:45:02;5;4;
47982;PMS5003;33751;50.816;-1.214;2023-11-19T12:47:29;5;5;
47982;PMS5003;33751;50.816;-1.214;2023-11-19T12:49:56;9;4;
47982;PMS5003;33751;50.816;-1.214;2023-11-19T12:52:23;5;2;
47982;PMS5003;33751;50.816;-1.214;2023-11-19T12:54:50;4;4;
47982;PMS5003;33751;50.816;-1.214;2023-11-19T12:57:16;5;4;
47982;PMS5003;33751;50.816;-1.214;2023-11-19T12:59:43;5;5;
47982;PMS5003;33751;50.816;-1.214;2023-11-19T13:02:21;4;4;
47982;PMS5003;33751;50.816;-1.214;2023-11-19T13:04:47;3;2;
47982;PMS5003;33751;50.816;-1.214;2023-11-19T13:07:15;3;3;
47982;PMS5003;33751;50.816;-1.214;2023-11-19T13:09:47;10;5;
47982;PMS5003;33751;50.816;-1.214;2023-11-19T13:12:15;8;5;
47982;PMS5003;33751;50.816;-1.214;2023-11-19T13:14:42;4;3;
47982;PMS5003;33751;50.816;-1.214;2023-11-19T13:17:08;5;4;
47982;PMS5003;33751;50.816;-1.214;2023-11-19T13:19:38;4;4;
47982;PMS5003;33751;50.816;-1.214;2023-11-19T13:22:05;4;2;
47982;PMS5003;33751;50.816;-1.214;2023-11-19T13:24:32;7;5;
47982;PMS5003;33751;50.816;-1.214;2023-11-19T13:26:58;6;4;
47982;PMS5003;33751;50.816;-1.214;2023-11-19T13:29:25;6;5;
47982;PMS5003;33751;50.816;-1.214;2023-11-19T13:31:52;4;3;
47982;PMS5003;33751;50.816;-1.214;2023-11-19T13:34:19;5;4;
47982;PMS5003;33751;50.816;-1.214;2023-11-19T13:36:46;9;5;
47982;PMS5003;33751;50.816;-1.214;2023-11-19T13:39:13;6;6;
47982;PMS5003;33751;50.816;-1.214;2023-11-19T13:41:40;4;4;
47982;PMS5003;33751;50.816;-1.214;2023-11-19T13:44:06;4;4;
47982;PMS5003;33751;50.816;-1.214;2023-11-19T13:46:33;5;4;
47982;PMS5003;33751;50.816;-1.214;2023-11-19T13:49:00;6;3;
47982;PMS5003;33751;50.816;-1.214;2023-11-19T13:51:26;7;6;
47982;PMS5003;33751;50.816;-1.214;2023-11-19T13:53:53;4;4;
47982;PMS5003;33751;50.816;-1.214;2023-11-19T13:56:20;3;2;
47982;PMS5003;33751;50.816;-1.214;2023-11-19T13:58:46;4;4;
47982;PMS5003;33751;50.816;-1.214;2023-11-19T14:01:13;5;2;
47982;PMS5003;33751;50.816;-1.214;2023-11-19T14:03:40;6;5;
47982;PMS5003;33751;50.816;-1.214;2023-11-19T14:06:06;4;4;
47982;PMS5003;33751;50.816;-1.214;2023-11-19T14:08:33;5;3;
47982;PMS5003;33751;50.816;-1.214;2023-11-19T14:11:00;6;5;
47982;PMS5003;33751;50.816;-1.214;2023-11-19T14:13:26;4;4;
47982;PMS5003;33751;50.816;-1.214;2023-11-19T14:15:53;5;5;
47982;PMS5003;33751;50.816;-1.214;2023-11-19T14:18:20;4;4;
47982;PMS5003;33751;50.816;-1.214;2023-11-19T14:20:46;2;2;
47982;PMS5003;33751;50.816;-1.214;2023-11-19T14:23:13;5;5;
47982;PMS5003;33751;50.816;-1.214;2023-11-19T14:25:40;5;4;
47982;PMS5003;33751;50.816;-1.214;2023-11-19T14:28:06;3;3;
47982;PMS5003;33751;50.816;-1.214;2023-11-19T14:30:33;6;6;
47982;PMS5003;33751;50.816;-1.214;2023-11-19T14:33:00;4;3;
47982;PMS5003;33751;50.816;-1.214;2023-11-19T14:35:26;5;5;
47982;PMS5003;33751;50.816;-1.214;2023-11-19T14:37:53;11;4;
47982;PMS5003;33751;50.816;-1.214;2023-11-19T14:40:20;4;4;
47982;PMS5003;33751;50.816;-1.214;2023-11-19T14:42:46;7;3;
47982;PMS5003;33751;50.816;-1.214;2023-11-19T14:45:15;5;5;
47982;PMS5003;33751;50.816;-1.214;2023-11-19T14:47:41;2;2;
47982;PMS5003;33751;50.816;-1.214;2023-11-19T14:50:08;2;2;
47982;PMS5003;33751;50.816;-1.214;2023-11-19T14:52:35;2;2;
47982;PMS5003;33751;50.816;-1.214;2023-11-19T14:55:02;4;4;
47982;PMS5003;33751;50.816;-1.214;2023-11-19T14:57:29;3;3;
47982;PMS5003;33751;50.816;-1.214;2023-11-19T14:59:55;13;7;
47982;PMS5003;33751;50.816;-1.214;2023-11-19T15:02:23;2;2;
47982;PMS5003;33751;50.816;-1.214;2023-11-19T15:04:49;2;2;
47982;PMS5003;33751;50.816;-1.214;2023-11-19T15:07:16;6;3;
47982;PMS5003;33751;50.816;-1.214;2023-11-19T15:09:43;4;4;
47982;PMS5003;33751;50.816;-1.214;2023-11-19T15:12:09;4;4;
47982;PMS5003;33751;50.816;-1.214;2023-11-19T15:14:36;4;2;
47982;PMS5003;33751;50.816;-1.214;2023-11-19T15:17:03;10;6;
47982;PMS5003;33751;50.816;-1.214;2023-11-19T15:19:30;3;3;
47982;PMS5003;33751;50.816;-1.214;2023-11-19T15:21:56;6;4;
47982;PMS5003;33751;50.816;-1.214;2023-11-19T15:24:23;4;4;
47982;PMS5003;33751;50.816;-1.214;2023-11-19T15:26:50;11;7;
47982;PMS5003;33751;50.816;-1.214;2023-11-19T15:29:17;2;2;
47982;PMS5003;33751;50.816;-1.214;2023-11-19T15:31:43;5;3;
47982;PMS5003;33751;50.816;-1.214;2023-11-19T15:34:10;1;1;
47982;PMS5003;33751;50.816;-1.214;2023-11-19T15:36:36;4;4;
47982;PMS5003;33751;50.816;-1.214;2023-11-19T15:39:03;6;5;
47982;PMS5003;33751;50.816;-1.214;2023-11-19T15:41:30;8;4;
47982;PMS5003;33751;50.816;-1.214;2023-11-19T15:43:57;5;5;
47982;PMS5003;33751;50.816;-1.214;2023-11-19T15:46:24;3;1;
47982;PMS5003;33751;50.816;-1.214;2023-11-19T15:48:50;1;1;
47982;PMS5003;33751;50.816;-1.214;2023-11-19T15:51:17;3;3;
47982;PMS5003;33751;50.816;-1.214;2023-11-19T15:53:43;4;3;
47982;PMS5003;33751;50.816;-1.214;2023-11-19T15:56:10;2;1;
47982;PMS5003;33751;50.816;-1.214;2023-11-19T15:58:36;4;4;
47982;PMS5003;33751;50.816;-1.214;2023-11-19T16:01:03;3;3;
47982;PMS5003;33751;50.816;-1.214;2023-11-19T16:03:30;3;3;
47982;PMS5003;33751;50.816;-1.214;2023-11-19T16:05:57;5;5;
47982;PMS5003;33751;50.816;-1.214;2023-11-19T16:08:23;3;3;
47982;PMS5003;33751;50.816;-1.214;2023-11-19T16:10:50;4;3;
47982;PMS5003;33751;50.816;-1.214;2023-11-19T16:13:16;5;3;
47982;PMS5003;33751;50.816;-1.214;2023-11-19T16:15:42;4;4;
47982;PMS5003;33751;50.816;-1.214;2023-11-19T16:18:09;3;1;
47982;PMS5003;33751;50.816;-1.214;2023-11-19T16:20:35;3;3;
47982;PMS5003;33751;50.816;-1.214;2023-11-19T16:23:02;5;3;
47982;PMS5003;33751;50.816;-1.214;2023-11-19T16:25:29;1;1;
47982;PMS5003;33751;50.816;-1.214;2023-11-19T16:27:55;1;1;
47982;PMS5003;33751;50.816;-1.214;2023-11-19T16:30:23;2;2;
47982;PMS5003;33751;50.816;-1.214;2023-11-19T16:32:51;3;3;
47982;PMS5003;33751;50.816;-1.214;2023-11-19T16:35:18;3;3;